Time;durP1;ratioP1;P1;durP2;ratioP2;P2;SDS_P1;SDS_P2;PMS_P1;PMS_P2;Temp;Humidity;BMP_temperature;BMP_pressure;BME280_temperature;BME280_humidity;BME280_pressure;Samples;Min_cycle;Max_cycle;Signal;HPM_P1;HPM_P2
2022/06/19 00:00:54;;;;;;;3.30;1.20;;;;;;;23.96;45.32;100722.84;16137793;19;129843;-65
2022/06/19 00:06:17;;;;;;;4.90;1.30;;;;;;;23.94;45.06;100753.88;16139026;19;130052;-65
2022/06/19 00:11:39;;;;;;;4.75;1.10;;;;;;;23.93;44.73;100746.63;16140905;19;128821;-65
2022/06/19 00:17:02;;;;;;;6.78;1.52;;;;;;;23.91;44.55;100760.03;16133050;19;131591;-65
2022/06/19 00:22:24;;;;;;;3.65;1.02;;;;;;;23.91;44.54;100734.91;16135179;19;129679;-65
2022/06/19 00:27:46;;;;;;;3.00;0.90;;;;;;;23.89;44.75;100751.09;16131211;19;129926;-65
2022/06/19 00:33:08;;;;;;;4.93;1.10;;;;;;;23.87;44.53;100747.78;16132596;19;129873;-66
2022/06/19 00:38:30;;;;;;;5.13;1.13;;;;;;;23.88;44.32;100763.41;16129041;19;129773;-65
2022/06/19 00:44:00;;;;;;;4.43;1.17;;;;;;;23.87;44.27;100746.94;16132566;19;129773;-66
2022/06/19 00:49:33;;;;;;;7.65;1.33;;;;;;;23.86;44.03;100743.31;16133436;19;130294;-65
2022/06/19 00:55:07;;;;;;;4.18;1.00;;;;;;;23.84;44.04;100726.00;16128827;19;131153;-65
2022/06/19 01:00:31;;;;;;;2.63;1.13;;;;;;;23.83;43.84;100757.84;16136797;19;129858;-65
2022/06/19 01:05:53;;;;;;;4.43;1.40;;;;;;;23.80;43.95;100952.03;16131565;19;130257;-66
2022/06/19 01:11:18;;;;;;;4.72;1.35;;;;;;;23.82;43.61;100870.72;16134235;19;129916;-65
2022/06/19 01:16:39;;;;;;;7.80;1.30;;;;;;;23.78;43.44;100957.06;16132018;19;129636;-66
2022/06/19 01:22:16;;;;;;;5.30;1.30;;;;;;;23.77;43.19;100901.44;16134388;19;129612;-66
2022/06/19 01:33:43;;;;;;;4.93;1.20;;;;;;;23.70;42.23;100942.81;16134867;19;129919;-66
2022/06/19 01:39:05;;;;;;;5.63;1.35;;;;;;;23.67;42.05;100896.72;16134097;19;130088;-65
2022/06/19 01:44:27;;;;;;;4.95;1.30;;;;;;;23.66;42.33;100931.38;16141438;19;129633;-66
2022/06/19 01:49:52;;;;;;;5.55;1.55;;;;;;;23.64;41.81;100956.75;16150662;19;129714;-66
2022/06/19 01:55:17;;;;;;;6.80;1.43;;;;;;;23.62;41.47;100950.66;16140333;19;130238;-66
2022/06/19 02:00:43;;;;;;;;;;;;;;;23.58;41.39;100948.63;16146679;19;130057;-65
2022/06/19 02:06:05;;;;;;;4.90;1.30;;;;;;;23.59;40.88;100992.22;16145461;19;129595;-65
2022/06/19 02:11:31;;;;;;;5.57;1.20;;;;;;;23.56;40.48;100976.84;16146497;19;129947;-65
2022/06/19 02:16:53;;;;;;;5.07;1.27;;;;;;;23.51;39.82;100979.63;16145653;19;130006;-65
2022/06/19 02:22:15;;;;;;;5.30;1.05;;;;;;;23.50;39.56;100980.78;16145044;19;129963;-65
2022/06/19 02:27:38;;;;;;;9.02;1.45;;;;;;;23.49;39.78;100970.72;16137135;19;131062;-65
2022/06/19 02:33:01;;;;;;;7.65;1.25;;;;;;;23.48;39.66;101016.50;16140860;19;130402;-66
2022/06/19 02:38:22;;;;;;;6.15;1.42;;;;;;;23.48;39.60;101008.94;16140443;19;130632;-66
2022/06/19 02:43:44;;;;;;;4.53;1.20;;;;;;;23.47;39.16;100970.16;16137791;19;129912;-66
2022/06/19 02:49:06;;;;;;;4.30;1.20;;;;;;;23.46;39.06;100946.13;16136921;19;129670;-66
2022/06/19 02:54:28;;;;;;;3.40;0.90;;;;;;;23.43;39.15;100904.81;16142296;19;129715;-66
2022/06/19 02:59:50;;;;;;;4.40;1.00;;;;;;;23.41;38.72;100874.38;16140046;19;129822;-66
2022/06/19 03:05:25;;;;;;;4.75;0.80;;;;;;;23.41;38.39;100929.38;16139349;19;129529;-65
2022/06/19 03:10:47;;;;;;;4.00;1.00;;;;;;;23.38;38.53;100913.22;16140865;19;129190;-66
2022/06/19 03:16:10;;;;;;;3.65;0.93;;;;;;;23.37;37.75;100889.19;16144762;19;129727;-66
2022/06/19 03:21:32;;;;;;;5.45;0.90;;;;;;;23.36;38.18;100866.00;16142408;19;129977;-66
2022/06/19 03:26:54;;;;;;;4.00;0.75;;;;;;;23.34;38.03;100936.09;16138725;19;129689;-65
2022/06/19 03:32:15;;;;;;;4.47;0.77;;;;;;;23.34;37.68;101042.16;16135399;19;130342;-66
2022/06/19 03:37:38;;;;;;;3.05;0.85;;;;;;;23.33;38.17;100959.53;16135729;19;129523;-66
2022/06/19 03:43:00;;;;;;;5.05;1.15;;;;;;;23.31;37.64;100955.34;16140061;19;130527;-66
2022/06/19 03:48:22;;;;;;;5.15;0.90;;;;;;;23.31;37.96;100916.28;16135215;19;129705;-66
2022/06/19 03:53:45;;;;;;;3.60;0.80;;;;;;;23.29;37.58;100855.13;16139963;19;132521;-66
2022/06/19 03:59:12;;;;;;;4.35;0.68;;;;;;;23.28;37.32;100803.22;16131796;19;130597;-66
2022/06/19 04:04:36;;;;;;;4.10;0.88;;;;;;;23.27;37.27;100800.72;16137486;19;129750;-66
2022/06/19 04:09:59;;;;;;;2.58;0.52;;;;;;;23.26;37.52;100827.81;16136685;19;130558;-66
2022/06/19 04:15:21;;;;;;;7.38;0.88;;;;;;;23.27;37.00;100815.50;16135568;19;129735;-66
2022/06/19 04:20:43;;;;;;;6.40;0.93;;;;;;;23.25;36.89;100803.78;16137697;19;129634;-66
2022/06/19 04:26:14;;;;;;;2.70;1.00;;;;;;;23.27;36.66;100790.38;16134205;19;130402;-66
2022/06/19 04:31:36;;;;;;;3.78;0.65;;;;;;;23.25;36.94;100781.47;16131093;19;133233;-66
2022/06/19 04:36:58;;;;;;;4.75;0.73;;;;;;;23.24;37.13;100735.13;16136248;19;129720;-66
2022/06/19 04:42:20;;;;;;;2.45;0.60;;;;;;;23.25;36.92;100728.44;16130734;19;129406;-66
2022/06/19 04:47:42;;;;;;;3.33;0.60;;;;;;;23.25;37.01;100708.03;16132088;19;129761;-66
2022/06/19 04:53:03;;;;;;;5.25;1.35;;;;;;;23.25;36.99;100731.22;16132629;19;130781;-66
2022/06/19 04:58:25;;;;;;;5.75;0.65;;;;;;;23.25;36.91;100808.53;16130723;19;129027;-66
2022/06/19 05:03:47;;;;;;;2.88;0.70;;;;;;;23.25;36.74;100870.78;16133136;19;130536;-66
2022/06/19 05:09:09;;;;;;;5.85;0.93;;;;;;;23.25;36.62;100887.53;16127705;19;130568;-66
2022/06/19 05:14:31;;;;;;;2.35;0.65;;;;;;;23.26;36.65;100888.34;16132725;19;131444;-65
2022/06/19 05:19:53;;;;;;;1.80;0.70;;;;;;;23.27;36.83;100814.66;16143385;19;129399;-66
2022/06/19 05:25:15;;;;;;;2.80;1.00;;;;;;;23.27;36.38;100846.19;16146922;19;131689;-66
2022/06/19 05:30:36;;;;;;;4.10;0.50;;;;;;;23.28;36.78;100897.28;16142161;19;130403;-66
2022/06/19 05:35:59;;;;;;;5.88;0.73;;;;;;;23.27;36.78;100952.25;16146652;19;129774;-66
2022/06/19 05:41:20;;;;;;;2.95;0.93;;;;;;;23.23;36.45;100898.13;16149391;19;129882;-66
2022/06/19 05:46:42;;;;;;;4.57;0.50;;;;;;;23.16;35.87;101006.38;16142907;19;130165;-64
2022/06/19 05:52:19;;;;;;;2.63;0.80;;;;;;;23.14;35.38;101103.53;16144563;19;130276;-66
2022/06/19 05:57:41;;;;;;;10.77;1.33;;;;;;;23.06;34.96;101132.78;16145440;19;130443;-66
2022/06/19 06:03:03;;;;;;;8.55;1.00;;;;;;;23.03;34.75;101219.81;16144789;19;130515;-66
2022/06/19 06:08:25;;;;;;;7.72;0.90;;;;;;;23.00;35.11;101263.06;16141430;19;129686;-65
2022/06/19 06:13:47;;;;;;;5.10;0.93;;;;;;;22.95;34.38;101251.84;16146479;19;129804;-66
2022/06/19 06:19:09;;;;;;;3.92;0.90;;;;;;;22.91;34.32;101256.28;16144519;19;128986;-66
2022/06/19 06:24:31;;;;;;;5.30;0.95;;;;;;;22.87;34.33;101227.22;16139285;19;129888;-66
2022/06/19 06:29:52;;;;;;;2.25;0.60;;;;;;;22.83;34.07;101232.47;16136722;19;131930;-66
2022/06/19 06:35:14;;;;;;;3.78;0.90;;;;;;;22.81;33.99;101245.00;16143811;19;129450;-66
2022/06/19 06:40:36;;;;;;;7.50;0.85;;;;;;;22.76;33.53;101209.56;16142409;19;130065;-66
2022/06/19 06:46:12;;;;;;;8.32;0.82;;;;;;;22.72;33.41;101198.09;16140056;19;129709;-66
2022/06/19 06:51:34;;;;;;;;;;;;;;;22.65;33.38;101155.66;16142154;19;129945;-64
2022/06/19 06:56:56;;;;;;;5.38;0.82;;;;;;;22.65;33.77;101077.56;16142492;19;129491;-66
2022/06/19 07:02:17;;;;;;;5.07;0.82;;;;;;;22.61;33.37;101005.88;16142696;19;129159;-66
2022/06/19 07:07:39;;;;;;;21.70;1.60;;;;;;;22.59;33.63;100908.56;16137912;19;129381;-66
2022/06/19 07:13:01;;;;;;;6.45;1.17;;;;;;;22.58;33.73;101002.56;16145078;19;129267;-66
2022/06/19 07:18:23;;;;;;;6.38;1.02;;;;;;;22.61;34.08;101146.16;16143383;19;129385;-66
2022/06/19 07:23:45;;;;;;;4.90;1.17;;;;;;;22.64;33.91;101159.56;16142075;19;128889;-66
2022/06/19 07:29:08;;;;;;;4.90;1.00;;;;;;;22.69;33.70;101209.78;16137891;19;129740;-66
2022/06/19 07:34:29;;;;;;;5.63;0.70;;;;;;;22.74;34.42;101197.81;16144835;19;129484;-66
2022/06/19 07:39:55;;;;;;;4.47;1.02;;;;;;;22.77;34.70;101154.63;16142158;19;129043;-66
2022/06/19 07:45:17;;;;;;;10.27;1.20;;;;;;;22.77;34.81;101149.06;16142635;19;129389;-65
2022/06/19 07:50:39;;;;;;;10.77;1.20;;;;;;;22.78;35.21;101093.00;16142775;19;131897;-68
2022/06/19 07:56:00;;;;;;;10.85;1.35;;;;;;;22.79;35.25;101046.41;16142911;19;129808;-66
2022/06/19 08:01:22;;;;;;;14.13;1.70;;;;;;;22.79;35.35;101024.09;16141065;19;130983;-66
2022/06/19 08:06:59;;;;;;;10.90;1.52;;;;;;;22.76;35.57;100988.41;16139464;19;130756;-65
2022/06/19 08:12:22;;;;;;;8.98;1.60;;;;;;;22.74;35.88;100961.63;16141847;19;129337;-65
2022/06/19 08:17:44;;;;;;;10.88;1.92;;;;;;;22.74;36.20;100961.63;16139115;19;129979;-65
2022/06/19 08:23:06;;;;;;;13.65;1.73;;;;;;;22.73;35.96;100932.06;16138401;19;130112;-66
2022/06/19 08:29:10;;;;;;;5.68;1.10;;;;;;;22.74;36.34;100932.88;16136115;19;129294;-66
2022/06/19 08:34:13;;;;;;;10.60;1.25;;;;;;;22.77;36.95;101043.06;16138175;19;131331;-68
2022/06/19 08:39:36;;;;;;;8.20;1.48;;;;;;;22.80;37.01;101120.59;16140510;19;129676;-67
2022/06/19 08:45:16;;;;;;;8.82;1.60;;;;;;;22.84;36.83;101178.38;16139943;19;128963;-67
2022/06/19 08:50:40;;;;;;;6.90;1.23;;;;;;;22.85;37.25;101202.38;16136681;19;129559;-66
2022/06/19 08:56:37;;;;;;;6.07;1.10;;;;;;;22.88;37.34;101170.31;16154403;19;129272;-67
2022/06/19 09:02:08;;;;;;;7.63;1.70;;;;;;;22.89;37.31;101124.59;16151971;19;131843;-67
2022/06/19 09:07:40;;;;;;;8.68;1.70;;;;;;;22.88;37.42;101097.78;16149352;19;130097;-68
2022/06/19 09:13:20;;;;;;;6.07;1.20;;;;;;;22.92;37.52;101070.22;16151489;19;130012;-67
2022/06/19 09:19:02;;;;;;;5.32;1.50;;;;;;;22.93;37.40;101044.81;16151672;19;130482;-67
2022/06/19 09:24:29;;;;;;;7.38;1.25;;;;;;;22.93;37.38;101024.47;16153254;19;129542;-67
2022/06/19 09:29:58;;;;;;;5.40;1.58;;;;;;;22.94;37.44;101060.44;16146135;19;129496;-67
2022/06/19 09:35:32;;;;;;;6.28;1.35;;;;;;;22.98;37.27;101061.59;16147589;19;129438;-68
2022/06/19 09:40:59;;;;;;;7.00;1.67;;;;;;;23.02;37.42;101045.97;16148147;19;129253;-68
2022/06/19 09:46:28;;;;;;;3.83;1.13;;;;;;;23.08;37.04;101015.31;16147508;19;128928;-67
2022/06/19 09:51:55;;;;;;;7.53;1.67;;;;;;;23.08;37.36;101004.97;16148256;19;129298;-66
2022/06/19 09:57:31;;;;;;;5.97;1.30;;;;;;;23.11;37.33;100975.69;16147707;19;129026;-67
2022/06/19 10:03:08;;;;;;;3.47;1.30;;;;;;;23.11;37.35;100996.06;16148180;19;129622;-67
2022/06/19 10:08:53;;;;;;;5.03;1.33;;;;;;;23.12;37.62;100988.53;16146992;19;130127;-68
2022/06/19 10:14:38;;;;;;;6.72;1.42;;;;;;;23.17;37.39;100985.75;16150448;19;129681;-67
2022/06/19 10:20:03;;;;;;;6.77;1.50;;;;;;;23.23;37.43;100981.84;16145870;19;129910;-67
2022/06/19 10:25:37;;;;;;;4.40;1.43;;;;;;;23.27;37.63;101035.16;16150536;19;128981;-67
2022/06/19 10:31:17;;;;;;;4.85;1.05;;;;;;;23.29;37.92;101042.16;16144913;19;129324;-67
2022/06/19 10:36:51;;;;;;;6.20;1.52;;;;;;;23.33;37.56;101012.56;16149748;19;129038;-71
2022/06/19 10:42:33;;;;;;;4.13;0.90;;;;;;;23.34;37.49;101033.78;16150070;19;128858;-70
2022/06/19 10:48:19;;;;;;;3.55;1.17;;;;;;;23.38;37.28;101066.75;16144624;19;129044;-70
2022/06/19 10:54:18;;;;;;;6.55;1.63;;;;;;;23.37;37.64;101085.44;16147718;19;129437;-71
2022/06/19 10:59:40;;;;;;;4.57;1.10;;;;;;;23.34;37.74;101095.22;16145090;19;129732;-71
2022/06/19 11:05:11;;;;;;;4.85;1.13;;;;;;;23.35;37.75;101063.38;16147420;19;129061;-69
2022/06/19 11:10:40;;;;;;;5.63;1.20;;;;;;;23.38;37.87;101070.38;16143315;19;128878;-70
2022/06/19 11:16:05;;;;;;;3.95;0.85;;;;;;;23.38;37.63;101091.88;16147615;19;128695;-70
2022/06/19 11:21:34;;;;;;;4.83;1.23;;;;;;;23.38;38.09;101108.63;16147603;19;132960;-71
2022/06/19 11:26:56;;;;;;;3.40;0.88;;;;;;;23.39;37.87;101115.84;16149464;19;129268;-71
2022/06/19 11:32:20;;;;;;;3.85;1.10;;;;;;;23.39;37.94;101113.91;16142289;19;129891;-69
2022/06/19 11:37:56;;;;;;;7.47;1.38;;;;;;;23.38;37.63;101100.25;16144249;19;129646;-72
2022/06/19 11:43:27;;;;;;;6.47;1.40;;;;;;;23.40;37.80;101134.28;16146183;19;131489;-69
2022/06/19 11:48:55;;;;;;;4.78;1.20;;;;;;;23.39;37.66;101199.59;16143099;19;129262;-70
2022/06/19 11:54:24;;;;;;;5.05;1.10;;;;;;;23.40;38.14;101234.78;16143525;19;128864;-71
2022/06/19 11:59:47;;;;;;;5.32;0.95;;;;;;;23.41;37.94;101256.88;16144556;19;129266;-67
2022/06/19 12:05:38;;;;;;;5.45;1.10;;;;;;;23.44;37.94;101247.97;16138809;19;129161;-67
2022/06/19 12:11:04;;;;;;;3.17;0.95;;;;;;;23.44;37.92;101273.09;16138865;19;129005;-68
2022/06/19 12:16:25;;;;;;;4.72;1.10;;;;;;;23.43;37.81;101295.69;16141587;19;130106;-67
2022/06/19 12:21:54;;;;;;;2.55;0.80;;;;;;;23.43;37.97;101290.97;16141182;19;131526;-67
2022/06/19 12:27:18;;;;;;;2.88;0.88;;;;;;;23.45;38.01;101232.03;16140917;19;132607;-67
2022/06/19 12:32:44;;;;;;;2.75;0.73;;;;;;;23.46;38.33;101239.31;16137489;19;129379;-67
2022/06/19 12:38:13;;;;;;;3.17;0.70;;;;;;;23.44;38.06;101242.38;16142481;19;129695;-67
2022/06/19 12:44:03;;;;;;;5.32;0.85;;;;;;;23.43;38.12;101223.09;16141487;19;130203;-67
2022/06/19 12:49:58;;;;;;;2.95;0.75;;;;;;;23.43;37.75;101223.94;16138980;19;129102;-67
2022/06/19 12:55:20;;;;;;;5.40;0.73;;;;;;;23.44;38.10;101205.22;16136308;19;128875;-68
2022/06/19 13:00:50;;;;;;;3.88;1.02;;;;;;;23.45;38.19;101259.97;16136015;19;131341;-67
2022/06/19 13:06:12;;;;;;;3.35;0.80;;;;;;;23.45;38.57;101315.81;16141597;19;129009;-67
2022/06/19 13:12:17;;;;;;;2.55;0.90;;;;;;;23.44;38.30;101339.25;16134743;19;131774;-67
2022/06/19 13:17:58;;;;;;;1.48;0.77;;;;;;;23.42;38.43;101358.22;16137982;19;129127;-67
2022/06/19 13:23:32;;;;;;;3.78;0.90;;;;;;;23.39;38.15;101372.72;16140868;19;129356;-67
2022/06/19 13:29:04;;;;;;;2.53;1.02;;;;;;;23.36;38.48;101376.88;16137178;19;128916;-67
2022/06/19 13:34:38;;;;;;;4.07;1.30;;;;;;;23.32;38.37;101371.00;16137237;19;129908;-67
2022/06/19 13:40:12;;;;;;;5.80;1.25;;;;;;;23.31;38.44;101360.94;16147195;19;128981;-68
2022/06/19 13:45:55;;;;;;;3.40;1.42;;;;;;;23.29;38.54;101359.53;16152792;19;128847;-67
2022/06/19 13:51:31;;;;;;;5.55;1.30;;;;;;;23.29;38.43;101334.41;16148364;19;129103;-68
2022/06/19 13:56:56;;;;;;;;;;;;;;;23.22;38.76;101337.44;16148748;19;129302;-68
2022/06/19 14:03:04;;;;;;;4.65;1.50;;;;;;;23.24;38.65;101304.53;16151206;19;129722;-68
2022/06/19 14:08:36;;;;;;;2.10;1.02;;;;;;;23.24;38.71;101310.09;16152346;19;129352;-67
2022/06/19 14:14:04;;;;;;;3.90;1.50;;;;;;;23.26;38.83;101296.72;16148888;19;129565;-67
2022/06/19 14:19:44;;;;;;;4.63;1.45;;;;;;;23.28;38.56;101302.03;16151898;19;131936;-69
2022/06/19 14:25:23;;;;;;;4.78;1.30;;;;;;;23.29;38.46;101300.91;16150912;19;129261;-68
2022/06/19 14:30:50;;;;;;;6.20;1.60;;;;;;;23.27;38.59;101270.47;16146293;19;129211;-67
2022/06/19 14:36:17;;;;;;;5.55;1.30;;;;;;;23.26;38.79;101263.22;16149882;19;129966;-68
2022/06/19 14:41:39;;;;;;;2.58;0.98;;;;;;;23.24;38.75;101226.38;16149816;19;129298;-68
2022/06/19 14:47:28;;;;;;;5.80;1.58;;;;;;;23.29;38.67;101214.38;16148755;19;129670;-68
2022/06/19 14:53:28;;;;;;;2.35;1.20;;;;;;;23.30;38.67;101183.41;16144521;19;129382;-68
2022/06/19 14:58:52;;;;;;;2.92;1.17;;;;;;;23.32;38.73;101188.72;16146648;19;129770;-68
2022/06/19 15:04:20;;;;;;;3.40;1.23;;;;;;;23.32;38.66;101144.88;16146865;19;129352;-68
2022/06/19 15:09:49;;;;;;;4.20;1.10;;;;;;;23.33;38.43;101098.25;16144790;19;129383;-68
2022/06/19 15:15:20;;;;;;;3.75;1.20;;;;;;;23.34;38.47;101103.59;16148556;19;129639;-67
2022/06/19 15:21:05;;;;;;;4.22;1.17;;;;;;;23.36;38.54;101106.09;16148452;19;129401;-68
2022/06/19 15:26:27;;;;;;;5.45;1.65;;;;;;;23.37;38.28;101113.34;16145961;19;129506;-68
2022/06/19 15:31:54;;;;;;;3.38;1.00;;;;;;;23.39;38.43;101099.09;16138494;19;129463;-69
2022/06/19 15:37:37;;;;;;;3.35;1.38;;;;;;;23.39;38.63;101101.91;16146238;19;129410;-68
2022/06/19 15:43:17;;;;;;;4.18;1.42;;;;;;;23.39;38.56;101099.09;16145022;19;129288;-68
2022/06/19 15:48:45;;;;;;;3.63;1.00;;;;;;;23.37;38.54;101112.53;16142437;19;129181;-68
2022/06/19 15:54:15;;;;;;;5.00;1.20;;;;;;;23.34;39.01;101142.66;16144740;19;130143;-68
2022/06/19 15:59:38;;;;;;;2.70;1.00;;;;;;;23.30;38.71;101186.19;16143096;19;129027;-68
2022/06/19 16:05:07;;;;;;;4.93;1.52;;;;;;;23.29;38.73;101204.03;16143699;19;129552;-68
2022/06/19 16:10:31;;;;;;;4.10;1.08;;;;;;;23.25;38.78;101211.31;16141368;19;129609;-68
2022/06/19 16:16:17;;;;;;;5.07;1.20;;;;;;;23.25;38.65;101218.81;16143798;19;129505;-68
2022/06/19 16:21:46;;;;;;;4.03;1.13;;;;;;;23.19;39.01;101220.75;16145383;19;128948;-68
2022/06/19 16:27:14;;;;;;;3.35;0.95;;;;;;;23.18;39.14;101233.00;16144075;19;129239;-68
2022/06/19 16:32:43;;;;;;;2.88;1.00;;;;;;;23.15;38.74;101237.19;16139362;19;129439;-68
2022/06/19 16:44:44;;;;;;;2.60;0.55;;;;;;;23.14;38.79;101259.81;16144621;19;129551;-68
2022/06/19 16:50:10;;;;;;;2.38;1.13;;;;;;;23.10;38.81;101264.22;16150075;19;129046;-68
2022/06/19 16:55:37;;;;;;;3.10;0.73;;;;;;;23.10;38.83;101286.56;16154073;19;128855;-68
2022/06/19 17:01:06;;;;;;;4.50;0.88;;;;;;;23.09;38.83;101277.31;16165455;19;129006;-68
2022/06/19 17:06:31;;;;;;;3.42;0.60;;;;;;;23.09;38.85;101257.78;16220979;19;128159;-68
2022/06/19 17:12:05;;;;;;;5.30;0.80;;;;;;;23.08;38.68;101256.09;16218948;19;128500;-68
2022/06/19 17:17:34;;;;;;;2.85;0.88;;;;;;;23.07;38.97;101270.34;16236326;19;128879;-68
2022/06/19 17:23:04;;;;;;;3.50;0.85;;;;;;;23.05;38.87;101251.91;16235301;19;129310;-68
2022/06/19 17:28:53;;;;;;;2.65;0.82;;;;;;;23.03;38.65;101203.91;16232937;19;128294;-67
2022/06/19 17:34:25;;;;;;;1.50;0.60;;;;;;;23.07;38.96;101181.03;16236147;19;129003;-68
2022/06/19 17:39:48;;;;;;;2.13;0.75;;;;;;;23.07;38.59;101187.47;16234750;19;129498;-68
2022/06/19 17:45:19;;;;;;;2.40;0.88;;;;;;;23.11;39.21;101168.25;16230220;19;130740;-68
2022/06/19 17:50:43;;;;;;;22.20;9.55;;;;;;;23.12;39.05;101173.53;16231523;19;128828;-68
2022/06/19 17:56:46;;;;;;;60.65;29.45;;;;;;;23.14;39.36;101204.00;16233601;19;128301;-67
2022/06/19 18:02:11;;;;;;;77.93;36.03;;;;;;;23.17;39.54;101158.75;16229512;19;128258;-67
2022/06/19 18:07:46;;;;;;;76.95;35.30;;;;;;;23.15;39.50;101186.97;16225074;19;129368;-68
2022/06/19 18:13:16;;;;;;;68.47;32.28;;;;;;;23.17;39.40;101186.69;16223099;19;129189;-66
2022/06/19 18:18:45;;;;;;;73.18;30.13;;;;;;;23.16;39.88;101185.00;16226307;19;129851;-68
2022/06/19 18:24:10;;;;;;;52.22;26.55;;;;;;;23.15;39.55;101197.25;16224193;19;130705;-68
2022/06/19 18:29:41;;;;;;;51.97;25.10;;;;;;;23.13;39.54;101196.72;16222021;19;129208;-68
2022/06/19 18:35:15;;;;;;;51.70;23.05;;;;;;;23.12;39.30;101198.66;16223485;19;129334;-68
2022/06/19 18:40:42;;;;;;;46.00;21.25;;;;;;;23.10;39.36;101194.47;16226910;19;129159;-68
2022/06/19 18:46:06;;;;;;;35.13;18.08;;;;;;;23.08;39.40;101166.00;16227528;19;129076;-68
2022/06/19 18:51:28;;;;;;;34.53;17.37;;;;;;;23.06;38.85;101152.31;16224622;19;130811;-67
2022/06/19 18:56:50;;;;;;;30.75;14.38;;;;;;;23.01;38.79;101139.19;16226873;19;129889;-66
2022/06/19 19:02:12;;;;;;;26.42;12.73;;;;;;;22.98;38.64;101142.50;16226632;19;129588;-68
2022/06/19 19:07:34;;;;;;;28.30;12.55;;;;;;;22.96;38.63;101164.25;16225262;19;129797;-68
2022/06/19 19:12:57;;;;;;;21.58;9.95;;;;;;;22.95;38.80;101175.69;16217610;19;129084;-67
2022/06/19 19:18:19;;;;;;;19.88;9.63;;;;;;;22.93;38.37;101186.28;16222857;19;128857;-67
2022/06/19 19:23:41;;;;;;;16.40;7.75;;;;;;;22.91;38.59;101189.31;16136584;19;130944;-67
2022/06/19 19:29:08;;;;;;;16.50;7.45;;;;;;;22.90;38.38;101215.53;16140061;19;131629;-67
2022/06/19 19:34:32;;;;;;;17.15;6.85;;;;;;;22.86;38.45;101197.66;16134880;19;129232;-67
2022/06/19 19:39:54;;;;;;;16.35;5.20;;;;;;;22.84;38.63;101206.25;16137211;19;129685;-67
2022/06/19 19:45:16;;;;;;;21.85;5.32;;;;;;;22.84;38.37;101211.00;16141725;19;129439;-67
2022/06/19 19:50:40;;;;;;;13.23;4.55;;;;;;;22.85;38.16;101221.06;16138032;19;130486;-67
2022/06/19 19:56:03;;;;;;;12.68;4.25;;;;;;;22.85;38.33;101230.25;16143355;19;130139;-67
2022/06/19 20:01:24;;;;;;;10.38;3.75;;;;;;;22.86;38.54;101237.53;16143999;19;129252;-67
2022/06/19 20:12:32;;;;;;;14.50;2.83;;;;;;;22.85;38.22;101237.81;16139640;19;129501;-67
2022/06/19 20:17:54;;;;;;;9.82;2.83;;;;;;;22.84;37.92;101250.06;16144089;19;129374;-67
2022/06/19 20:23:37;;;;;;;6.43;2.45;;;;;;;22.83;38.08;101279.06;16143961;19;129308;-67
2022/06/19 20:29:04;;;;;;;6.53;2.63;;;;;;;22.81;37.85;101275.69;16140833;19;129431;-67
2022/06/19 20:34:30;;;;;;;7.50;2.50;;;;;;;22.81;38.11;101292.44;16138091;19;131744;-66
2022/06/19 20:39:51;;;;;;;11.27;2.65;;;;;;;22.78;38.19;101298.53;16140933;19;129208;-67
2022/06/19 20:45:13;;;;;;;7.93;1.67;;;;;;;22.78;38.06;101306.91;16134373;19;131626;-67
2022/06/19 20:50:43;;;;;;;6.75;1.50;;;;;;;22.77;37.73;101310.81;16135527;19;128967;-67
2022/06/19 20:56:05;;;;;;;6.32;2.05;;;;;;;22.75;38.03;101316.66;16140446;19;128975;-66
2022/06/19 21:01:26;;;;;;;5.82;1.92;;;;;;;22.72;38.05;101292.06;16140103;19;129316;-67
2022/06/19 21:06:48;;;;;;;9.25;1.50;;;;;;;22.73;37.98;101310.50;16139710;19;129332;-67
2022/06/19 21:12:10;;;;;;;6.00;1.50;;;;;;;22.73;37.73;101316.94;16134274;19;129321;-65
2022/06/19 21:17:32;;;;;;;5.90;1.23;;;;;;;22.72;37.98;101287.34;16133716;19;129704;-71
2022/06/19 21:22:56;;;;;;;5.88;1.55;;;;;;;22.72;37.86;101284.56;16129202;19;129640;-58
2022/06/19 21:28:21;;;;;;;7.77;1.53;;;;;;;22.71;37.82;101295.97;16134425;19;129581;-57
2022/06/19 21:33:43;;;;;;;3.88;1.13;;;;;;;22.68;37.83;101280.63;16131133;19;129978;-55
2022/06/19 21:39:05;;;;;;;6.55;1.60;;;;;;;22.66;37.51;101273.63;16136891;19;129400;-57
2022/06/19 21:44:27;;;;;;;7.97;1.63;;;;;;;22.64;38.08;101287.84;16137553;19;129797;-57
2022/06/19 21:49:49;;;;;;;5.03;1.20;;;;;;;22.63;37.89;101294.53;16134577;19;129646;-57
2022/06/19 21:55:16;;;;;;;4.97;1.15;;;;;;;22.62;37.55;101266.88;16135184;19;130109;-57
2022/06/19 22:00:46;;;;;;;2.72;1.13;;;;;;;22.58;37.68;101264.66;16144164;19;130098;-58
2022/06/19 22:06:20;;;;;;;2.88;0.98;;;;;;;22.58;37.54;101252.66;16150652;19;129146;-58
2022/06/19 22:17:26;;;;;;;5.57;1.35;;;;;;;22.52;37.31;101262.09;16146697;19;129872;-56
2022/06/19 22:22:49;;;;;;;4.50;1.17;;;;;;;22.50;37.45;101273.47;16140726;19;129130;-57
2022/06/19 22:28:15;;;;;;;5.65;1.27;;;;;;;22.51;37.42;101277.13;16146721;19;130169;-57
2022/06/19 22:33:37;;;;;;;3.30;0.80;;;;;;;22.49;37.56;101274.59;16138195;19;130509;-57
2022/06/19 22:39:07;;;;;;;6.53;1.50;;;;;;;22.48;37.38;101281.25;16141418;19;130069;-56
2022/06/19 22:44:33;;;;;;;2.88;1.20;;;;;;;22.47;37.71;101287.94;16143076;19;129456;-58
2022/06/19 22:49:56;;;;;;;3.55;0.80;;;;;;;22.47;37.53;101301.06;16142447;19;129492;-58
2022/06/19 22:55:19;;;;;;;3.03;0.85;;;;;;;22.46;37.59;101285.44;16139507;19;130386;-57
2022/06/19 23:06:26;;;;;;;3.17;0.90;;;;;;;22.44;37.65;101280.13;16141900;19;129796;-56
2022/06/19 23:11:49;;;;;;;3.05;0.80;;;;;;;22.42;37.41;101277.59;16139484;19;130725;-58
2022/06/19 23:17:22;;;;;;;5.03;1.02;;;;;;;22.44;37.86;101269.81;16141219;19;130282;-58
2022/06/19 23:22:45;;;;;;;3.22;0.88;;;;;;;22.42;37.90;101272.00;16138994;19;130024;-56
2022/06/19 23:28:15;;;;;;;2.53;0.73;;;;;;;22.41;37.53;101247.19;16138835;19;130681;-56
2022/06/19 23:33:36;;;;;;;2.92;0.60;;;;;;;22.41;37.92;101280.66;16134452;19;130371;-57
2022/06/19 23:39:01;;;;;;;3.15;0.80;;;;;;;22.40;37.70;101271.44;16141483;19;131827;-57
2022/06/19 23:44:23;;;;;;;4.33;1.07;;;;;;;22.39;37.97;101261.41;16141359;19;130354;-56
2022/06/19 23:49:45;;;;;;;2.65;0.68;;;;;;;22.39;37.74;101271.72;16138305;19;129167;-57
2022/06/19 23:55:07;;;;;;;4.22;0.90;;;;;;;22.38;37.53;101295.97;16138358;19;130201;-57
